Time;durP1;ratioP1;P1;durP2;ratioP2;P2;SDS_P1;SDS_P2;PMS_P1;PMS_P2;Temp;Humidity;BMP_temperature;BMP_pressure;BME280_temperature;BME280_humidity;BME280_pressure;Samples;Min_cycle;Max_cycle;Signal;HPM_P1;HPM_P2
2022/09/17 00:02:17;;;;;;;3.97;1.73;;;11.50;33.40;;;;;;5027382;28;20490;-54
2022/09/17 00:04:44;;;;;;;5.83;1.90;;;11.50;33.20;;;;;;5029529;28;20458;-53
2022/09/17 00:07:11;;;;;;;4.43;1.70;;;11.50;34.00;;;;;;5022482;28;20544;-53
2022/09/17 00:09:38;;;;;;;6.33;1.90;;;11.50;33.30;;;;;;5029630;28;20544;-53
2022/09/17 00:12:06;;;;;;;11.40;1.97;;;11.50;32.90;;;;;;5027673;28;20490;-53
2022/09/17 00:14:32;;;;;;;2.93;1.60;;;11.50;32.80;;;;;;5029833;28;20544;-53
2022/09/17 00:16:59;;;;;;;6.20;2.30;;;11.50;33.20;;;;;;5030878;28;20577;-53
2022/09/17 00:19:26;;;;;;;6.60;2.00;;;11.50;32.80;;;;;;5029159;28;20515;-53
2022/09/17 00:21:52;;;;;;;6.33;2.33;;;11.50;32.60;;;;;;5027304;28;20528;-53
2022/09/17 00:24:20;;;;;;;3.73;1.77;;;11.60;32.90;;;;;;5027515;28;20486;-53
2022/09/17 00:26:47;;;;;;;5.73;2.00;;;11.60;32.20;;;;;;5030265;28;20459;-53
2022/09/17 00:29:15;;;;;;;6.57;2.17;;;11.60;32.10;;;;;;5029288;28;20812;-53
2022/09/17 00:31:42;;;;;;;3.67;2.00;;;11.60;32.20;;;;;;5027768;28;20506;-53
2022/09/17 00:34:09;;;;;;;10.30;2.10;;;11.50;32.80;;;;;;5026910;28;20521;-53
2022/09/17 00:36:37;;;;;;;4.33;2.20;;;11.60;32.70;;;;;;5027094;28;20512;-53
2022/09/17 00:39:05;;;;;;;3.60;1.93;;;11.60;32.50;;;;;;5028033;28;20463;-53
2022/09/17 00:41:35;;;;;;;5.23;2.00;;;11.60;32.80;;;;;;5026286;28;20478;-52
2022/09/17 00:44:47;;;;;;;5.97;1.93;;;11.60;31.50;;;;;;5027040;28;20505;-53
2022/09/17 00:47:24;;;;;;;8.93;2.47;;;11.60;32.10;;;;;;5026847;28;20471;-53
2022/09/17 00:49:55;;;;;;;7.63;1.90;;;11.50;31.60;;;;;;5028689;28;20463;-53
2022/09/17 00:52:26;;;;;;;10.20;1.73;;;11.60;32.30;;;;;;5024864;28;20478;-53
2022/09/17 00:54:57;;;;;;;6.77;1.80;;;11.50;32.00;;;;;;5021514;28;20494;-53
2022/09/17 00:57:24;;;;;;;3.10;1.83;;;11.60;32.00;;;;;;5027132;28;20521;-53
2022/09/17 00:59:53;;;;;;;2.80;1.30;;;11.60;31.80;;;;;;5024831;28;20517;-53
2022/09/17 01:02:20;;;;;;;3.77;2.57;;;11.60;32.60;;;;;;5021702;28;20592;-53
2022/09/17 01:04:47;;;;;;;2.70;1.43;;;11.60;32.10;;;;;;5025768;28;21000;-53
2022/09/17 01:07:21;;;;;;;2.40;2.00;;;11.60;31.30;;;;;;5027473;28;20508;-53
2022/09/17 01:09:53;;;;;;;3.80;1.57;;;11.60;33.10;;;;;;5027639;28;20536;-53
2022/09/17 01:12:36;;;;;;;3.90;2.10;;;11.60;32.30;;;;;;5023542;28;20832;-52
2022/09/17 01:15:19;;;;;;;4.10;1.97;;;11.60;32.90;;;;;;5025849;28;20494;-53
2022/09/17 01:17:57;;;;;;;6.30;1.73;;;11.60;32.60;;;;;;5021706;28;20545;-53
2022/09/17 01:20:44;;;;;;;5.10;2.13;;;11.60;33.70;;;;;;5026066;28;20450;-53
2022/09/17 01:23:29;;;;;;;2.87;1.90;;;11.60;32.00;;;;;;5028400;28;20490;-53
2022/09/17 01:26:12;;;;;;;6.27;2.03;;;11.60;32.70;;;;;;5025594;28;20458;-54
2022/09/17 01:28:43;;;;;;;5.70;2.00;;;11.60;33.50;;;;;;5023797;28;21049;-52
2022/09/17 01:31:35;;;;;;;8.60;2.40;;;11.60;33.60;;;;;;5028825;28;20521;-52
2022/09/17 01:34:09;;;;;;;7.03;2.20;;;11.60;33.50;;;;;;5027506;28;20960;-53
2022/09/17 01:36:52;;;;;;;3.60;1.83;;;11.60;34.20;;;;;;5023687;28;20516;-53
2022/09/17 01:39:30;;;;;;;5.83;2.10;;;11.60;33.70;;;;;;5028033;28;20466;-53
2022/09/17 01:42:04;;;;;;;7.17;2.47;;;11.60;33.60;;;;;;5024037;28;20478;-53
2022/09/17 01:44:38;;;;;;;6.07;2.33;;;11.60;34.00;;;;;;5026495;28;20564;-53
2022/09/17 01:47:12;;;;;;;3.80;1.87;;;11.60;34.90;;;;;;5027423;28;20462;-53
2022/09/17 01:49:39;;;;;;;4.70;2.50;;;11.60;34.70;;;;;;5024818;28;20462;-53
2022/09/17 01:52:08;;;;;;;5.40;2.60;;;11.60;35.80;;;;;;5024362;28;20668;-52
2022/09/17 01:54:38;;;;;;;6.63;2.43;;;11.60;35.70;;;;;;5028359;28;20512;-52
2022/09/17 01:57:08;;;;;;;4.20;2.30;;;11.60;35.50;;;;;;5028175;28;20532;-53
2022/09/17 01:59:40;;;;;;;4.50;2.40;;;11.70;35.00;;;;;;5025966;28;20455;-53
2022/09/17 02:02:14;;;;;;;25.97;3.07;;;11.60;35.00;;;;;;5020513;28;21000;-53
2022/09/17 02:04:46;;;;;;;6.20;2.07;;;11.70;34.90;;;;;;5020152;28;20573;-53
2022/09/17 02:07:19;;;;;;;9.77;2.43;;;11.70;33.60;;;;;;5028183;28;20517;-53
2022/09/17 02:09:50;;;;;;;3.00;2.17;;;11.70;34.60;;;;;;5028091;28;20967;-53
2022/09/17 02:12:24;;;;;;;14.60;2.90;;;11.70;34.80;;;;;;5023296;28;20489;-53
2022/09/17 02:14:53;;;;;;;6.73;2.07;;;11.70;34.30;;;;;;5022742;28;20454;-53
2022/09/17 02:17:26;;;;;;;11.27;2.60;;;11.70;34.90;;;;;;5024553;28;20829;-53
2022/09/17 02:19:55;;;;;;;8.70;2.40;;;11.70;33.20;;;;;;5020320;28;20462;-54
2022/09/17 02:22:25;;;;;;;4.17;2.10;;;11.70;32.50;;;;;;5023735;28;20482;-53
2022/09/17 02:25:01;;;;;;;5.33;2.53;;;11.70;33.40;;;;;;5025196;28;21496;-53
2022/09/17 02:27:41;;;;;;;8.00;2.50;;;11.70;31.20;;;;;;5025704;28;20513;-53
2022/09/17 02:30:09;;;;;;;3.13;2.13;;;11.70;29.20;;;;;;5029021;28;20494;-53
2022/09/17 02:32:37;;;;;;;5.60;2.43;;;11.70;28.30;;;;;;5021525;28;21368;-53
2022/09/17 02:35:05;;;;;;;7.37;2.40;;;11.70;29.20;;;;;;5026869;28;20459;-53
2022/09/17 02:37:32;;;;;;;6.87;2.53;;;11.70;28.50;;;;;;5023619;28;20458;-53
2022/09/17 02:39:59;;;;;;;13.90;3.50;;;11.70;27.00;;;;;;5025286;28;20490;-54
2022/09/17 02:42:33;;;;;;;6.67;1.87;;;11.70;27.70;;;;;;5025142;28;20486;-54
2022/09/17 02:45:06;;;;;;;4.90;2.03;;;11.70;26.60;;;;;;5027501;28;20490;-53
2022/09/17 02:48:06;;;;;;;7.10;1.90;;;11.70;25.50;;;;;;5024012;28;20468;-53
2022/09/17 02:50:43;;;;;;;7.27;3.00;;;11.70;25.90;;;;;;5004692;28;20458;-53
2022/09/17 02:53:24;;;;;;;5.23;2.60;;;11.70;26.70;;;;;;5023236;28;20479;-52
2022/09/17 02:56:01;;;;;;;3.90;2.40;;;11.70;25.10;;;;;;5023834;28;20884;-53
2022/09/17 02:58:33;;;;;;;6.33;2.47;;;11.70;24.70;;;;;;5028334;28;20463;-53
2022/09/17 03:01:06;;;;;;;7.10;1.87;;;11.70;24.00;;;;;;5024564;28;20466;-55
2022/09/17 03:03:39;;;;;;;5.67;1.70;;;11.70;23.70;;;;;;5025747;28;20519;-53
2022/09/17 03:06:06;;;;;;;4.17;1.93;;;11.60;23.40;;;;;;5025902;28;20540;-53
2022/09/17 03:08:35;;;;;;;6.27;2.00;;;11.70;23.10;;;;;;5024236;28;20925;-53
2022/09/17 03:11:03;;;;;;;6.03;2.10;;;11.60;22.30;;;;;;5025181;28;20455;-53
2022/09/17 03:13:30;;;;;;;8.60;2.50;;;11.60;22.80;;;;;;5024305;28;20554;-54
2022/09/17 03:15:57;;;;;;;5.03;2.23;;;11.60;22.30;;;;;;5023997;28;20463;-53
2022/09/17 03:18:23;;;;;;;3.33;2.20;;;11.70;21.80;;;;;;5025056;28;20853;-52
2022/09/17 03:20:51;;;;;;;4.40;2.30;;;11.70;21.00;;;;;;5021784;28;21043;-52
2022/09/17 03:23:18;;;;;;;5.77;2.30;;;11.70;20.40;;;;;;5026064;28;20482;-53
2022/09/17 03:25:48;;;;;;;8.33;2.60;;;11.70;74.50;;;;;;5027502;28;20458;-53
2022/09/17 03:28:14;;;;;;;6.47;2.90;;;11.70;74.90;;;;;;5025527;28;20461;-53
2022/09/17 03:30:41;;;;;;;6.73;2.00;;;11.70;88.30;;;;;;5024834;28;20516;-53
2022/09/17 03:33:07;;;;;;;7.53;2.60;;;11.70;72.10;;;;;;5025645;28;20490;-53
2022/09/17 03:35:34;;;;;;;3.90;2.10;;;11.70;75.70;;;;;;5029152;28;20467;-53
2022/09/17 03:38:02;;;;;;;9.50;2.70;;;11.70;78.80;;;;;;5029499;28;21021;-52
2022/09/17 03:40:28;;;;;;;6.33;3.27;;;11.70;81.20;;;;;;5029728;28;20512;-53
2022/09/17 03:42:55;;;;;;;5.47;1.90;;;11.70;84.30;;;;;;5029288;28;21071;-53
2022/09/17 03:45:21;;;;;;;4.70;2.10;;;11.70;90.00;;;;;;5027972;28;20482;-53
2022/09/17 03:47:48;;;;;;;4.23;1.87;;;11.70;87.40;;;;;;5027858;28;20466;-54
2022/09/17 03:50:15;;;;;;;8.33;2.50;;;11.70;90.00;;;;;;5029246;28;20462;-53
2022/09/17 03:52:43;;;;;;;5.67;2.30;;;11.70;89.50;;;;;;5027730;28;20540;-53
2022/09/17 03:55:11;;;;;;;5.60;2.33;;;11.70;91.10;;;;;;5032233;28;20517;-52
2022/09/17 03:57:37;;;;;;;5.50;1.90;;;11.70;93.50;;;;;;5026224;28;20467;-52
2022/09/17 04:00:05;;;;;;;3.80;1.70;;;11.70;88.30;;;;;;5029989;28;20493;-53
2022/09/17 04:02:32;;;;;;;11.73;2.40;;;11.70;86.50;;;;;;5028288;28;20494;-53
2022/09/17 04:04:58;;;;;;;3.37;1.90;;;11.70;91.70;;;;;;5031833;28;20478;-53
2022/09/17 04:07:25;;;;;;;5.93;2.50;;;11.70;91.10;;;;;;5029093;28;20463;-52
2022/09/17 04:09:52;;;;;;;5.17;2.47;;;11.70;97.80;;;;;;5027703;28;20482;-53
2022/09/17 04:12:20;;;;;;;4.50;2.27;;;11.70;99.90;;;;;;5028322;28;20540;-53
2022/09/17 04:14:47;;;;;;;6.40;2.20;;;11.70;99.90;;;;;;5030126;28;20458;-53
2022/09/17 04:17:16;;;;;;;7.33;2.90;;;11.80;99.90;;;;;;5028043;28;20464;-53
2022/09/17 04:19:43;;;;;;;6.63;2.53;;;11.70;99.90;;;;;;5027430;28;20465;-53
2022/09/17 04:22:10;;;;;;;8.33;2.43;;;11.80;99.90;;;;;;5029032;28;20483;-53
2022/09/17 04:24:36;;;;;;;6.30;1.97;;;11.70;99.90;;;;;;5029900;28;20546;-52
2022/09/17 04:27:03;;;;;;;8.57;2.47;;;11.70;99.90;;;;;;5026088;28;20463;-52
2022/09/17 04:29:31;;;;;;;15.07;2.87;;;11.80;99.90;;;;;;5027886;28;20512;-52
2022/09/17 04:31:57;;;;;;;10.30;2.50;;;11.80;99.90;;;;;;5030105;28;20486;-52
2022/09/17 04:34:24;;;;;;;8.73;2.37;;;11.70;99.90;;;;;;5028108;28;20496;-53
2022/09/17 04:36:50;;;;;;;8.57;2.30;;;11.70;98.80;;;;;;5030654;28;20463;-53
2022/09/17 04:39:17;;;;;;;10.27;2.80;;;11.70;99.90;;;;;;5027639;28;20463;-53
2022/09/17 04:41:44;;;;;;;7.70;2.67;;;11.80;99.90;;;;;;5026923;28;20475;-52
2022/09/17 04:44:10;;;;;;;9.30;2.40;;;11.80;99.90;;;;;;5026302;28;21187;-53
2022/09/17 04:46:38;;;;;;;7.17;2.57;;;11.80;99.90;;;;;;5028989;28;20458;-53
2022/09/17 04:49:05;;;;;;;9.27;2.70;;;11.80;99.90;;;;;;5028566;28;20465;-52
2022/09/17 04:51:31;;;;;;;6.67;2.47;;;11.80;99.90;;;;;;5026421;28;20482;-54
2022/09/17 04:53:58;;;;;;;8.17;3.10;;;11.80;99.90;;;;;;5027069;28;20458;-53
2022/09/17 04:56:25;;;;;;;3.07;2.40;;;11.80;99.90;;;;;;5030365;28;21011;-53
2022/09/17 04:58:51;;;;;;;9.00;2.70;;;11.80;99.90;;;;;;5026361;28;20471;-53
2022/09/17 05:01:18;;;;;;;13.37;2.73;;;11.80;99.90;;;;;;5027023;28;20901;-54
2022/09/17 05:03:46;;;;;;;8.40;2.30;;;11.80;99.90;;;;;;5026131;28;20454;-53
2022/09/17 05:06:13;;;;;;;7.70;2.27;;;11.80;99.90;;;;;;5028548;28;20462;-52
2022/09/17 05:08:39;;;;;;;7.50;3.30;;;11.80;99.90;;;;;;5029121;28;20525;-52
2022/09/17 05:11:06;;;;;;;9.60;2.27;;;11.80;99.90;;;;;;5027203;28;20458;-54
2022/09/17 05:13:32;;;;;;;12.47;5.30;;;11.80;99.90;;;;;;5025591;28;20459;-54
2022/09/17 05:15:59;;;;;;;13.17;5.03;;;11.80;99.90;;;;;;5033743;28;20466;-53
2022/09/17 05:18:26;;;;;;;14.23;3.40;;;11.80;99.90;;;;;;5031895;28;20599;-53
2022/09/17 05:20:53;;;;;;;11.23;4.57;;;11.80;99.90;;;;;;5023799;28;20466;-53
2022/09/17 05:23:20;;;;;;;9.63;2.90;;;11.80;99.90;;;;;;5033419;28;21048;-53
2022/09/17 05:25:47;;;;;;;7.30;2.60;;;11.80;99.90;;;;;;5027486;28;20497;-52
2022/09/17 05:28:14;;;;;;;10.50;3.20;;;11.80;99.90;;;;;;5027829;28;20956;-52
2022/09/17 05:30:41;;;;;;;9.43;2.47;;;11.80;99.90;;;;;;5022578;28;20496;-52
2022/09/17 05:33:08;;;;;;;5.90;2.53;;;11.80;95.80;;;;;;5025147;28;20480;-53
2022/09/17 05:35:35;;;;;;;9.50;2.80;;;11.80;99.90;;;;;;5028601;28;20454;-53
2022/09/17 05:38:06;;;;;;;9.23;2.37;;;11.80;99.90;;;;;;5029003;28;20542;-52
2022/09/17 05:40:33;;;;;;;5.37;2.30;;;11.80;99.90;;;;;;5024975;28;20522;-53
2022/09/17 05:43:00;;;;;;;7.70;2.13;;;11.90;99.90;;;;;;5026104;28;20541;-52
2022/09/17 05:45:27;;;;;;;9.80;3.20;;;11.90;99.90;;;;;;5027434;28;20484;-54
2022/09/17 05:47:57;;;;;;;12.17;2.60;;;11.90;99.90;;;;;;5025746;28;20520;-52
2022/09/17 05:50:25;;;;;;;12.27;3.30;;;11.90;99.90;;;;;;5027607;28;20877;-52
2022/09/17 05:52:51;;;;;;;7.00;2.23;;;11.90;99.90;;;;;;5026659;28;20533;-53
2022/09/17 05:55:21;;;;;;;10.00;2.37;;;11.90;99.90;;;;;;5028400;28;21154;-54
2022/09/17 05:57:48;;;;;;;7.53;2.60;;;11.90;99.90;;;;;;5024014;28;20458;-53
2022/09/17 06:00:15;;;;;;;10.70;3.03;;;11.90;99.90;;;;;;5023836;28;20485;-52
2022/09/17 06:02:42;;;;;;;16.53;3.53;;;12.00;99.90;;;;;;5024031;28;20522;-53
2022/09/17 06:05:09;;;;;;;7.73;2.23;;;12.00;99.90;;;;;;5028667;28;20489;-53
2022/09/17 06:07:36;;;;;;;6.23;2.50;;;12.00;99.20;;;;;;5027703;28;20545;-53
2022/09/17 06:10:04;;;;;;;11.53;3.37;;;12.00;93.10;;;;;;5026363;28;20482;-51
2022/09/17 06:12:34;;;;;;;15.70;3.53;;;12.00;79.70;;;;;;5024470;28;20483;-52
2022/09/17 06:15:00;;;;;;;5.03;2.43;;;12.00;78.10;;;;;;5028266;28;20543;-52
2022/09/17 06:17:27;;;;;;;12.37;3.67;;;12.00;81.80;;;;;;5027000;28;20459;-50
2022/09/17 06:19:54;;;;;;;17.33;6.80;;;12.00;21.90;;;;;;5026910;28;20492;-51
2022/09/17 06:22:21;;;;;;;17.63;3.60;;;12.10;23.90;;;;;;5021223;28;20548;-52
2022/09/17 06:24:48;;;;;;;9.80;3.93;;;12.10;26.10;;;;;;5026903;28;20486;-51
2022/09/17 06:27:14;;;;;;;21.13;8.30;;;12.20;25.80;;;;;;5021179;28;20470;-51
2022/09/17 06:29:42;;;;;;;16.47;3.97;;;12.30;27.40;;;;;;5019189;28;21026;-51
2022/09/17 06:32:11;;;;;;;9.37;3.67;;;12.30;37.70;;;;;;5018790;28;20882;-53
2022/09/17 06:34:38;;;;;;;14.00;3.80;;;12.40;34.50;;;;;;5021156;28;20494;-52
2022/09/17 06:37:05;;;;;;;14.33;3.90;;;12.40;35.40;;;;;;5027381;28;20521;-52
2022/09/17 06:39:32;;;;;;;11.37;3.97;;;12.40;37.70;;;;;;5021293;28;20459;-53
2022/09/17 06:41:58;;;;;;;15.73;3.80;;;12.40;41.50;;;;;;5028529;28;20829;-53
2022/09/17 06:44:25;;;;;;;17.73;3.50;;;12.30;45.40;;;;;;5023847;28;20831;-53
2022/09/17 06:46:53;;;;;;;15.73;3.00;;;12.30;54.20;;;;;;5024131;28;20466;-52
2022/09/17 06:49:19;;;;;;;13.93;4.00;;;12.20;61.60;;;;;;5024262;28;20485;-53
2022/09/17 06:51:46;;;;;;;15.67;3.97;;;12.20;66.00;;;;;;5022232;28;21073;-53
2022/09/17 06:54:12;;;;;;;12.10;4.00;;;12.20;69.10;;;;;;5024923;28;20508;-53
2022/09/17 06:56:39;;;;;;;14.83;4.00;;;12.20;74.20;;;;;;5026833;28;20509;-53
2022/09/17 06:59:06;;;;;;;19.70;4.70;;;12.20;77.80;;;;;;5021397;28;20467;-53
2022/09/17 07:01:32;;;;;;;25.63;5.20;;;12.20;92.20;;;;;;5024783;28;20984;-53
2022/09/17 07:04:00;;;;;;;13.40;4.33;;;12.20;91.00;;;;;;5030062;28;20471;-53
2022/09/17 07:06:27;;;;;;;14.80;3.87;;;12.20;92.50;;;;;;5024590;28;20486;-52
2022/09/17 07:08:53;;;;;;;14.87;3.70;;;12.20;91.40;;;;;;5019970;28;20469;-56
2022/09/17 07:11:20;;;;;;;13.70;3.73;;;12.20;93.20;;;;;;5030164;28;20490;-53
2022/09/17 07:13:47;;;;;;;21.80;7.07;;;12.20;96.70;;;;;;5034064;28;20816;-54
2022/09/17 07:16:13;;;;;;;22.97;5.60;;;12.30;96.80;;;;;;5028244;28;20459;-53
2022/09/17 07:18:40;;;;;;;23.10;7.00;;;12.30;98.40;;;;;;5030449;28;20454;-54
2022/09/17 07:21:09;;;;;;;9.80;3.47;;;12.30;99.90;;;;;;5024601;28;20458;-53
2022/09/17 07:23:37;;;;;;;17.13;4.80;;;12.30;99.90;;;;;;5026809;28;20502;-54
2022/09/17 07:26:06;;;;;;;16.57;4.17;;;12.30;99.90;;;;;;5026649;28;20549;-53
2022/09/17 07:28:33;;;;;;;12.60;4.43;;;12.30;99.90;;;;;;5025527;28;20467;-53
2022/09/17 07:31:03;;;;;;;16.33;5.83;;;12.30;99.90;;;;;;5026770;28;21033;-53
2022/09/17 07:33:29;;;;;;;16.50;3.47;;;12.30;99.90;;;;;;5027079;28;20467;-52
2022/09/17 07:35:57;;;;;;;20.67;4.10;;;12.30;99.90;;;;;;5025111;28;20455;-52
2022/09/17 07:38:26;;;;;;;13.23;3.40;;;12.30;99.90;;;;;;5021540;28;20466;-54
2022/09/17 07:40:58;;;;;;;19.87;3.60;;;12.30;99.90;;;;;;5022618;28;20463;-53
2022/09/17 07:43:26;;;;;;;6.83;3.07;;;12.30;99.90;;;;;;5022739;28;20455;-53
2022/09/17 07:45:52;;;;;;;17.77;4.93;;;12.30;99.90;;;;;;5023680;28;21015;-52
2022/09/17 07:48:20;;;;;;;13.43;3.50;;;12.20;99.90;;;;;;5028159;28;20463;-53
2022/09/17 07:50:46;;;;;;;16.80;3.40;;;12.20;99.90;;;;;;5024629;28;20464;-52
2022/09/17 07:53:13;;;;;;;6.87;2.70;;;12.20;99.90;;;;;;5029631;28;20490;-53
2022/09/17 07:55:41;;;;;;;12.10;3.47;;;12.20;99.90;;;;;;5025132;28;20536;-53
2022/09/17 07:58:08;;;;;;;11.97;4.03;;;12.20;99.90;;;;;;5023341;28;20463;-52
2022/09/17 08:00:35;;;;;;;13.50;3.47;;;12.20;99.90;;;;;;5022802;28;20467;-53
2022/09/17 08:03:02;;;;;;;10.00;3.40;;;12.20;99.90;;;;;;5025416;28;21011;-53
2022/09/17 08:05:28;;;;;;;9.37;2.77;;;12.20;99.90;;;;;;5027701;28;20490;-53
2022/09/17 08:07:55;;;;;;;16.27;3.60;;;12.30;99.90;;;;;;5012206;28;20498;-52
2022/09/17 08:10:23;;;;;;;12.53;3.17;;;12.30;99.90;;;;;;5019092;28;20532;-53
2022/09/17 08:12:55;;;;;;;16.70;2.70;;;12.30;99.90;;;;;;5018408;28;21020;-52
2022/09/17 08:15:22;;;;;;;10.80;3.20;;;12.40;99.90;;;;;;5020375;28;20482;-52
2022/09/17 08:17:49;;;;;;;14.20;2.97;;;12.40;99.90;;;;;;5021470;28;20532;-52
2022/09/17 08:20:17;;;;;;;16.53;2.90;;;12.50;99.90;;;;;;5020733;28;20556;-53
2022/09/17 08:22:43;;;;;;;13.23;3.23;;;12.50;99.90;;;;;;5023683;28;20478;-52
2022/09/17 08:25:10;;;;;;;18.20;4.00;;;12.60;99.90;;;;;;5025861;28;20564;-52
2022/09/17 08:28:04;;;;;;;16.77;3.50;;;12.60;29.00;;;;;;5025050;28;20453;-52
2022/09/17 08:30:33;;;;;;;11.57;3.83;;;12.70;54.40;;;;;;5038927;28;20471;-53
2022/09/17 08:33:00;;;;;;;9.93;3.30;;;12.90;43.90;;;;;;5022523;28;21053;-52
2022/09/17 08:35:26;;;;;;;6.97;2.80;;;13.10;40.90;;;;;;5019970;28;21053;-52
2022/09/17 08:37:54;;;;;;;15.50;3.10;;;13.20;64.00;;;;;;5021053;28;20891;-53
2022/09/17 08:40:22;;;;;;;8.57;2.20;;;13.20;88.10;;;;;;5020682;28;20509;-53
2022/09/17 08:42:58;;;;;;;18.80;2.60;;;13.30;99.90;;;;;;5022710;28;21083;-52
2022/09/17 08:45:25;;;;;;;16.13;3.27;;;13.50;99.90;;;;;;5025118;28;20475;-52
2022/09/17 08:47:55;;;;;;;10.27;3.17;;;13.60;99.90;;;;;;5023284;28;20819;-52
2022/09/17 08:50:27;;;;;;;13.10;2.77;;;13.80;99.90;;;;;;5027627;28;20528;-52
2022/09/17 08:53:13;;;;;;;15.43;3.43;;;13.90;99.90;;;;;;5029368;28;20479;-52
2022/09/17 08:55:44;;;;;;;13.47;3.47;;;14.10;99.90;;;;;;5024464;28;20462;-52
2022/09/17 08:58:32;;;;;;;12.53;3.13;;;14.20;99.90;;;;;;5026176;28;20980;-52
2022/09/17 09:01:11;;;;;;;13.73;2.90;;;14.20;99.90;;;;;;5023905;28;20968;-51
2022/09/17 09:03:52;;;;;;;14.53;3.97;;;14.30;99.90;;;;;;5022830;28;20878;-53
2022/09/17 09:06:24;;;;;;;12.00;3.23;;;14.20;99.90;;;;;;5024138;28;20483;-52
2022/09/17 09:09:01;;;;;;;9.87;3.27;;;14.30;99.90;;;;;;5025206;28;20530;-50
2022/09/17 09:11:30;;;;;;;15.40;3.70;;;14.30;99.90;;;;;;5024054;28;20478;-52
2022/09/17 09:14:05;;;;;;;13.33;3.30;;;14.40;99.90;;;;;;5025472;28;20474;-53
2022/09/17 09:16:33;;;;;;;13.53;3.00;;;14.30;99.90;;;;;;5024856;28;20453;-52
2022/09/17 09:19:17;;;;;;;8.63;2.33;;;14.50;99.90;;;;;;5021913;28;20512;-52
2022/09/17 09:21:50;;;;;;;11.00;2.27;;;14.60;99.90;;;;;;5026018;28;20886;-53
2022/09/17 09:24:23;;;;;;;17.83;3.20;;;14.70;99.90;;;;;;5030421;28;20999;-52
2022/09/17 09:26:58;;;;;;;12.37;3.70;;;14.90;99.90;;;;;;5027670;28;20529;-52
2022/09/17 09:29:40;;;;;;;9.27;3.33;;;14.90;91.20;;;;;;5024316;28;20485;-52
2022/09/17 09:32:17;;;;;;;6.00;2.20;;;15.10;42.70;;;;;;5027247;28;20475;-51
2022/09/17 09:34:47;;;;;;;8.73;2.50;;;15.20;22.80;;;;;;5029354;28;20458;-52
2022/09/17 09:37:19;;;;;;;11.60;2.63;;;15.10;26.40;;;;;;5025099;28;20478;-51
2022/09/17 09:39:48;;;;;;;16.63;3.83;;;15.00;36.60;;;;;;5030328;28;20462;-52
2022/09/17 09:42:23;;;;;;;8.30;2.53;;;15.10;43.20;;;;;;5024374;28;20999;-52
2022/09/17 09:44:49;;;;;;;8.97;2.87;;;14.90;32.10;;;;;;5022436;28;20454;-53
2022/09/17 09:47:33;;;;;;;10.70;3.00;;;14.80;91.40;;;;;;5029690;28;20482;-52
2022/09/17 09:50:18;;;;;;;12.70;2.90;;;14.70;99.90;;;;;;5021966;28;20533;-52
2022/09/17 09:52:58;;;;;;;12.47;2.80;;;14.60;99.90;;;;;;5025187;28;20483;-52
2022/09/17 09:55:54;;;;;;;11.40;2.57;;;14.50;99.90;;;;;;5025535;28;20465;-51
2022/09/17 09:58:29;;;;;;;12.37;2.60;;;14.30;99.90;;;;;;5022822;28;20485;-52
2022/09/17 10:00:56;;;;;;;13.80;2.80;;;14.10;99.90;;;;;;5029823;28;20450;-53
2022/09/17 10:03:26;;;;;;;5.80;1.90;;;13.90;99.90;;;;;;5026083;28;20458;-53
2022/09/17 10:05:57;;;;;;;6.63;2.13;;;13.90;99.90;;;;;;5028881;28;20478;-53
2022/09/17 10:08:24;;;;;;;6.67;2.10;;;13.90;99.90;;;;;;5027279;28;20549;-51
2022/09/17 10:11:00;;;;;;;8.53;3.07;;;13.90;99.90;;;;;;5026295;28;20505;-53
2022/09/17 10:13:28;;;;;;;13.50;3.00;;;14.10;99.90;;;;;;5025079;28;20458;-53
2022/09/17 10:15:55;;;;;;;17.50;2.73;;;14.20;99.90;;;;;;5021526;28;20502;-53
2022/09/17 10:18:24;;;;;;;9.30;2.40;;;14.40;99.90;;;;;;5027470;28;21019;-52
2022/09/17 10:20:57;;;;;;;8.23;2.10;;;14.40;99.90;;;;;;5026342;28;20470;-53
2022/09/17 10:23:26;;;;;;;10.80;2.20;;;14.60;99.90;;;;;;5030515;28;20529;-53
2022/09/17 10:25:54;;;;;;;10.27;2.20;;;14.70;99.90;;;;;;5027212;28;20540;-53
2022/09/17 10:28:45;;;;;;;9.57;2.33;;;14.60;99.90;;;;;;5027090;28;20459;-52
2022/09/17 10:31:13;;;;;;;8.77;2.53;;;14.40;99.90;;;;;;5026024;28;20462;-54
2022/09/17 10:33:51;;;;;;;7.33;2.10;;;14.30;99.90;;;;;;5029303;28;20838;-52
2022/09/17 10:36:37;;;;;;;8.63;2.70;;;14.00;99.90;;;;;;5027266;28;20451;-52
2022/09/17 10:39:20;;;;;;;10.50;2.30;;;13.90;99.90;;;;;;5027993;28;20523;-51
2022/09/17 10:41:54;;;;;;;11.83;2.57;;;13.70;99.90;;;;;;5028201;28;20564;-52
2022/09/17 10:44:22;;;;;;;8.17;2.13;;;13.70;99.90;;;;;;5026699;28;20463;-51
2022/09/17 10:46:49;;;;;;;8.70;2.17;;;13.70;99.90;;;;;;5026008;28;20556;-52
2022/09/17 10:49:33;;;;;;;7.23;2.40;;;13.70;99.90;;;;;;5022710;28;20459;-51
2022/09/17 10:52:14;;;;;;;13.90;3.23;;;13.80;99.90;;;;;;5025362;28;20482;-52
2022/09/17 10:55:11;;;;;;;7.40;2.50;;;13.90;99.90;;;;;;5025868;28;20466;-53
2022/09/17 10:58:13;;;;;;;9.53;2.73;;;14.20;99.90;;;;;;5025408;28;20509;-52
2022/09/17 11:00:48;;;;;;;11.53;2.67;;;14.50;99.90;;;;;;5026683;28;20992;-52
2022/09/17 11:03:35;;;;;;;6.83;1.73;;;14.60;99.90;;;;;;5027133;28;20531;-52
2022/09/17 11:06:18;;;;;;;11.57;1.80;;;14.50;99.90;;;;;;5024585;28;20502;-52
2022/09/17 11:08:56;;;;;;;8.73;3.27;;;14.40;21.70;;;;;;5024180;28;20475;-53
2022/09/17 11:11:35;;;;;;;10.70;2.40;;;14.30;99.90;;;;;;5021699;28;20478;-52
2022/09/17 11:14:11;;;;;;;8.23;2.30;;;14.20;99.90;;;;;;5026231;28;20471;-54
2022/09/17 11:16:45;;;;;;;7.20;2.10;;;14.20;99.90;;;;;;5026030;28;20867;-52
2022/09/17 11:19:23;;;;;;;8.40;2.50;;;14.10;99.90;;;;;;5029106;28;20486;-53
2022/09/17 11:21:56;;;;;;;6.03;2.20;;;14.20;99.90;;;;;;5024949;28;21000;-51
2022/09/17 11:24:55;;;;;;;4.33;1.80;;;14.40;99.90;;;;;;5025097;28;20876;-52
2022/09/17 11:27:37;;;;;;;6.30;2.97;;;14.50;99.90;;;;;;5024050;28;20486;-52
2022/09/17 11:30:17;;;;;;;11.50;2.40;;;14.60;99.90;;;;;;5028496;28;20486;-52
2022/09/17 11:33:03;;;;;;;6.87;2.00;;;14.50;38.50;;;;;;5022229;28;20897;-52
2022/09/17 11:35:32;;;;;;;8.90;2.37;;;14.50;32.50;;;;;;5027269;28;20878;-52
2022/09/17 11:38:05;;;;;;;8.20;2.00;;;14.50;55.40;;;;;;5018910;28;20478;-52
2022/09/17 11:40:38;;;;;;;8.67;2.83;;;14.50;45.60;;;;;;5025577;28;20458;-53
2022/09/17 11:43:16;;;;;;;7.73;1.87;;;14.50;34.00;;;;;;5034718;28;20487;-53
2022/09/17 11:45:55;;;;;;;7.60;2.80;;;14.50;28.30;;;;;;5022797;28;20496;-52
2022/09/17 11:48:29;;;;;;;14.67;2.83;;;14.60;76.60;;;;;;5027260;28;20509;-52
2022/09/17 11:50:58;;;;;;;6.37;2.23;;;14.80;26.30;;;;;;5025720;28;20544;-52
2022/09/17 11:53:31;;;;;;;6.53;2.00;;;15.00;71.90;;;;;;5019424;28;20964;-51
2022/09/17 11:56:03;;;;;;;6.00;1.73;;;15.00;61.20;;;;;;5029140;28;20454;-51
2022/09/17 11:58:40;;;;;;;12.33;1.30;;;15.10;69.80;;;;;;5027136;28;20454;-51
2022/09/17 12:01:10;;;;;;;3.33;1.67;;;15.20;71.50;;;;;;5028390;28;20462;-51
2022/09/17 12:03:41;;;;;;;3.10;1.20;;;15.30;52.00;;;;;;5052720;22;21238;-54
2022/09/17 12:06:13;;;;;;;3.47;1.30;;;15.40;82.40;;;;;;5011359;28;20518;-53
2022/09/17 12:08:45;;;;;;;7.43;2.40;;;15.40;81.50;;;;;;5015091;28;20466;-53
2022/09/17 12:11:19;;;;;;;6.20;1.67;;;15.40;91.60;;;;;;5013609;28;20479;-54
2022/09/17 12:13:49;;;;;;;4.00;1.43;;;15.40;70.80;;;;;;5014208;28;20557;-54
2022/09/17 12:16:21;;;;;;;6.50;1.30;;;15.00;85.10;;;;;;5008765;28;20464;-54
2022/09/17 12:18:59;;;;;;;6.67;1.30;;;14.80;87.90;;;;;;5006374;28;20509;-54
2022/09/17 12:21:33;;;;;;;3.03;1.17;;;14.50;94.60;;;;;;5005096;28;20455;-54
2022/09/17 12:24:07;;;;;;;1.87;1.07;;;14.20;86.20;;;;;;5007183;28;20484;-53
2022/09/17 12:26:51;;;;;;;7.13;1.40;;;14.10;55.80;;;;;;5005177;28;20562;-54
2022/09/17 12:29:29;;;;;;;4.13;1.30;;;14.10;46.60;;;;;;5008585;28;20575;-55
2022/09/17 12:32:03;;;;;;;3.60;1.10;;;14.20;47.90;;;;;;5006420;28;20459;-53
2022/09/17 12:34:42;;;;;;;3.80;1.40;;;14.40;47.80;;;;;;5005099;28;20538;-54
2022/09/17 12:37:14;;;;;;;2.80;1.10;;;14.50;51.00;;;;;;5010354;28;20982;-55
2022/09/17 12:40:15;;;;;;;2.40;1.27;;;14.50;55.50;;;;;;5007551;28;20468;-53
2022/09/17 12:42:59;;;;;;;3.27;1.33;;;14.50;44.00;;;;;;4996086;28;20456;-55
2022/09/17 12:45:42;;;;;;;4.20;1.93;;;14.60;36.00;;;;;;5006567;28;20487;-53
2022/09/17 12:48:28;;;;;;;4.40;1.73;;;14.70;36.20;;;;;;5006697;28;20476;-53
2022/09/17 12:51:11;;;;;;;4.83;1.40;;;14.90;37.80;;;;;;5007643;28;21196;-53
2022/09/17 12:53:44;;;;;;;6.03;1.07;;;15.00;30.50;;;;;;5006532;28;20475;-54
2022/09/17 12:56:24;;;;;;;5.43;1.30;;;15.30;46.80;;;;;;5005900;28;20456;-53
2022/09/17 12:59:04;;;;;;;2.03;1.00;;;15.50;67.70;;;;;;5007540;28;20463;-53
2022/09/17 13:01:35;;;;;;;4.17;1.00;;;15.50;77.40;;;;;;5005143;28;20455;-54
2022/09/17 13:04:14;;;;;;;5.17;1.20;;;15.40;99.50;;;;;;5005656;28;21020;-54
2022/09/17 13:07:12;;;;;;;4.83;1.53;;;15.20;99.90;;;;;;5006392;28;20927;-54